Conway, Missouri
Current Conditions -  °F | °C
As of 5:15 AM on Sunday 21 Dec 2014 (Local Time) from KH21 Reporting Station
Overcast Overcast  
Wind Chill: 38°   Ceiling: 2500
Heat Index: 41°   Visibility: 10mi
Dew Point: 34°   Wind: 5mph
Humidity: 76%   Direction: 140°SE
Pressure: 30.14"   Gusts: NA
Location:  37.5°N, 92.82°W
Report Text: KH21 211115Z AUTO 14004KT 10SM OVC025 05/01 A3014 RMK AO2
Loading
Personal Weather Stations






























Interactive Weather Map New forecast layout! Learn more

10-Day Weather Forecast

Advertisements
Track Severe Weather on mobile